createdAt,value
2023-02-02T00:01:46.058Z,2.90
2023-02-02T00:04:20.439Z,3.00
2023-02-02T00:06:47.796Z,2.87
2023-02-02T00:09:17.610Z,2.87
2023-02-02T00:11:45.794Z,2.60
2023-02-02T00:14:13.388Z,2.57
2023-02-02T00:16:50.002Z,3.03
2023-02-02T00:19:19.456Z,2.27
2023-02-02T00:21:46.393Z,3.50
2023-02-02T00:24:14.896Z,2.67
2023-02-02T00:26:43.033Z,2.80
2023-02-02T00:29:15.706Z,3.13
2023-02-02T00:31:42.831Z,3.57
2023-02-02T00:34:14.714Z,3.10
2023-02-02T00:36:42.299Z,2.63
2023-02-02T00:39:11.044Z,2.70
2023-02-02T00:41:37.837Z,3.03
2023-02-02T00:44:26.739Z,2.40
2023-02-02T00:46:53.510Z,3.07
2023-02-02T00:49:20.343Z,2.93
2023-02-02T00:51:47.139Z,2.63
2023-02-02T00:54:16.807Z,2.97
2023-02-02T00:56:44.265Z,2.70
2023-02-02T00:59:10.959Z,3.03
2023-02-02T01:01:40.539Z,2.37
2023-02-02T01:04:07.380Z,2.53
2023-02-02T01:06:34.223Z,2.73
2023-02-02T01:09:01.017Z,2.73
2023-02-02T01:11:27.809Z,2.63
2023-02-02T01:13:57.158Z,2.17
2023-02-02T01:16:25.064Z,2.40
2023-02-02T01:18:52.564Z,2.30
2023-02-02T01:21:20.005Z,2.63
2023-02-02T01:23:52.931Z,2.70
2023-02-02T01:26:19.780Z,2.80
2023-02-02T01:28:46.599Z,2.87
2023-02-02T01:31:21.121Z,3.20
2023-02-02T01:33:49.045Z,2.80
2023-02-02T01:36:21.538Z,2.73
2023-02-02T01:38:49.630Z,3.00
2023-02-02T01:41:19.253Z,2.63
2023-02-02T01:43:46.016Z,3.27
2023-02-02T01:46:16.954Z,3.23
2023-02-02T01:48:54.788Z,2.73
2023-02-02T01:51:25.281Z,3.53
2023-02-02T01:53:57.637Z,3.07
2023-02-02T01:56:34.934Z,3.70
2023-02-02T01:59:03.625Z,3.27
2023-02-02T02:01:36.252Z,2.97
2023-02-02T02:04:03.215Z,2.90
2023-02-02T02:06:30.225Z,2.53
2023-02-02T02:09:03.675Z,3.10
2023-02-02T02:11:31.836Z,3.50
2023-02-02T02:14:20.622Z,3.63
2023-02-02T02:17:17.510Z,3.40
2023-02-02T02:20:33.156Z,2.57
2023-02-02T02:23:59.696Z,3.17
2023-02-02T02:26:57.702Z,3.33
2023-02-02T02:29:41.888Z,2.80
2023-02-02T02:32:42.493Z,3.17
2023-02-02T02:35:34.457Z,2.30
2023-02-02T02:38:25.971Z,2.80
2023-02-02T02:41:01.059Z,3.00
2023-02-02T02:43:40.228Z,2.87
2023-02-02T02:46:08.734Z,3.47
2023-02-02T02:48:35.501Z,2.57
2023-02-02T02:51:09.322Z,3.20
2023-02-02T02:53:37.709Z,2.80
2023-02-02T02:56:24.185Z,2.63
2023-02-02T02:59:07.235Z,3.37
2023-02-02T03:01:34.032Z,2.70
2023-02-02T03:04:06.544Z,2.70
2023-02-02T03:07:05.413Z,2.60
2023-02-02T03:09:37.113Z,3.07
2023-02-02T03:12:04.127Z,2.60
2023-02-02T03:14:39.433Z,2.97
2023-02-02T03:17:06.185Z,3.67
2023-02-02T03:19:35.955Z,2.73
2023-02-02T03:22:03.332Z,2.90
2023-02-02T03:24:30.324Z,3.47
2023-02-02T03:26:57.375Z,2.90
2023-02-02T03:29:24.332Z,3.00
2023-02-02T03:31:51.308Z,3.63
2023-02-02T03:34:18.122Z,1.87
2023-02-02T03:36:44.963Z,2.80
2023-02-02T03:39:11.773Z,2.73
2023-02-02T03:41:38.600Z,3.23
2023-02-02T03:44:05.515Z,3.23
2023-02-02T03:46:32.342Z,2.40
2023-02-02T03:48:59.282Z,3.07
2023-02-02T03:51:26.079Z,2.87
2023-02-02T03:53:52.813Z,3.00
2023-02-02T03:56:19.709Z,2.57
2023-02-02T03:58:47.233Z,3.00
2023-02-02T04:01:15.578Z,2.73
2023-02-02T04:03:42.961Z,3.40
2023-02-02T04:06:12.881Z,2.70
2023-02-02T04:08:39.721Z,2.83
2023-02-02T04:11:10.459Z,3.50
2023-02-02T04:13:37.297Z,2.53
2023-02-02T04:16:04.412Z,2.90
2023-02-02T04:18:31.270Z,2.33
2023-02-02T04:21:01.947Z,3.00
2023-02-02T04:23:29.779Z,2.73
2023-02-02T04:25:57.344Z,3.40
2023-02-02T04:28:25.537Z,3.00
2023-02-02T04:30:53.750Z,3.33
2023-02-02T04:33:21.867Z,2.63
2023-02-02T04:35:48.704Z,2.33
2023-02-02T04:38:15.871Z,2.50
2023-02-02T04:40:44.757Z,3.10
2023-02-02T04:43:12.016Z,2.80
2023-02-02T04:45:45.437Z,2.80
2023-02-02T04:48:12.416Z,2.40
2023-02-02T04:50:39.247Z,2.77
2023-02-02T04:53:06.508Z,2.60
2023-02-02T04:55:37.847Z,2.90
2023-02-02T04:58:06.137Z,2.07
2023-02-02T05:00:33.106Z,2.33
2023-02-02T05:03:01.119Z,2.60
2023-02-02T05:05:28.007Z,2.90
2023-02-02T05:07:56.952Z,2.23
2023-02-02T05:10:23.988Z,2.63
2023-02-02T05:12:53.189Z,2.10
2023-02-02T05:15:21.412Z,2.40
2023-02-02T05:17:49.953Z,2.47
2023-02-02T05:20:17.671Z,2.57
2023-02-02T05:22:48.732Z,2.50
2023-02-02T05:25:15.804Z,2.40
2023-02-02T05:27:46.589Z,2.70
2023-02-02T05:30:14.616Z,2.40
2023-02-02T05:32:41.713Z,2.20
2023-02-02T05:35:09.464Z,2.33
2023-02-02T05:37:36.497Z,2.10
2023-02-02T05:40:04.222Z,2.53
2023-02-02T05:42:31.050Z,2.23
2023-02-02T05:44:58.397Z,2.70
2023-02-02T05:47:25.281Z,2.17
2023-02-02T05:49:51.975Z,2.33
2023-02-02T05:52:21.219Z,3.30
2023-02-02T05:54:48.259Z,2.73
2023-02-02T05:57:15.007Z,2.43
2023-02-02T05:59:41.820Z,2.43
2023-02-02T06:02:09.107Z,2.43
2023-02-02T06:04:36.032Z,2.37
2023-02-02T06:07:03.123Z,2.20
2023-02-02T06:09:30.036Z,2.67
2023-02-02T06:11:56.795Z,2.50
2023-02-02T06:14:23.716Z,2.20
2023-02-02T06:16:50.542Z,2.53
2023-02-02T06:19:17.453Z,2.33
2023-02-02T06:21:44.243Z,2.57
2023-02-02T06:24:11.061Z,2.70
2023-02-02T06:26:41.271Z,2.37
2023-02-02T06:29:11.978Z,2.33
2023-02-02T06:31:39.036Z,2.00
2023-02-02T06:34:05.988Z,2.43
2023-02-02T06:36:32.800Z,2.57
2023-02-02T06:38:59.672Z,2.37
2023-02-02T06:41:26.541Z,2.20
2023-02-02T06:43:53.387Z,2.63
2023-02-02T06:46:20.239Z,2.57
2023-02-02T06:48:47.175Z,1.97
2023-02-02T06:51:18.468Z,2.67
2023-02-02T06:53:49.449Z,2.63
2023-02-02T06:56:16.863Z,2.50
2023-02-02T06:58:43.809Z,3.07
2023-02-02T07:01:12.666Z,2.67
2023-02-02T07:03:42.249Z,2.70
2023-02-02T07:06:13.284Z,1.93
2023-02-02T07:08:40.116Z,2.37
2023-02-02T07:11:12.981Z,3.40
2023-02-02T07:13:46.212Z,2.30
2023-02-02T07:16:13.891Z,2.50
2023-02-02T07:18:42.921Z,2.60
2023-02-02T07:21:16.133Z,2.77
2023-02-02T07:23:43.102Z,2.23
2023-02-02T07:26:10.749Z,2.60
2023-02-02T07:28:37.608Z,2.40
2023-02-02T07:31:22.488Z,2.60
2023-02-02T07:33:49.688Z,2.50
2023-02-02T07:36:19.699Z,2.60
2023-02-02T07:38:48.019Z,2.60
2023-02-02T07:41:15.875Z,2.60
2023-02-02T07:43:48.834Z,2.30
2023-02-02T07:46:17.213Z,2.30
2023-02-02T07:48:44.152Z,2.07
2023-02-02T07:51:15.945Z,2.73
2023-02-02T07:53:47.875Z,2.47
2023-02-02T07:56:20.292Z,2.50
2023-02-02T07:58:47.869Z,2.80
2023-02-02T08:01:16.183Z,2.50
2023-02-02T08:03:44.038Z,2.97
2023-02-02T08:06:20.804Z,2.23
2023-02-02T08:08:49.163Z,2.93
2023-02-02T08:11:19.223Z,2.20
2023-02-02T08:13:50.217Z,2.70
2023-02-02T08:16:17.522Z,2.23
2023-02-02T08:18:44.443Z,3.23
2023-02-02T08:21:11.803Z,2.00
2023-02-02T08:23:40.493Z,2.30
2023-02-02T08:26:14.893Z,2.17
2023-02-02T08:28:43.782Z,2.33
2023-02-02T08:31:17.465Z,2.50
2023-02-02T08:33:44.493Z,2.53
2023-02-02T08:36:19.710Z,2.17
2023-02-02T08:38:50.525Z,2.47
2023-02-02T08:41:20.663Z,2.50
2023-02-02T08:43:47.567Z,2.13
2023-02-02T08:46:16.836Z,2.30
2023-02-02T08:48:44.221Z,2.07
2023-02-02T08:51:14.436Z,2.03
2023-02-02T08:53:44.869Z,1.83
2023-02-02T08:56:14.523Z,2.67
2023-02-02T08:58:47.456Z,2.17
2023-02-02T09:01:28.940Z,2.63
2023-02-02T09:03:57.890Z,2.40
2023-02-02T09:06:39.182Z,2.00
2023-02-02T09:09:09.937Z,2.40
2023-02-02T09:11:37.208Z,2.80
2023-02-02T09:14:06.503Z,2.17
2023-02-02T09:16:37.310Z,1.83
2023-02-02T09:19:08.620Z,2.53
2023-02-02T09:21:37.251Z,2.80
2023-02-02T09:24:09.989Z,2.50
2023-02-02T09:26:38.762Z,2.30
2023-02-02T09:29:07.155Z,2.27
2023-02-02T09:31:36.223Z,2.67
2023-02-02T09:34:05.755Z,2.50
2023-02-02T09:36:33.117Z,2.60
2023-02-02T09:39:03.615Z,2.37
2023-02-02T09:41:39.451Z,2.33
2023-02-02T09:44:24.777Z,2.63
2023-02-02T09:46:54.393Z,2.40
2023-02-02T09:49:58.205Z,2.83
2023-02-02T09:52:47.874Z,2.00
2023-02-02T09:55:36.676Z,2.03
2023-02-02T09:58:35.358Z,2.40
2023-02-02T10:01:13.746Z,2.13
2023-02-02T10:04:08.627Z,2.13
2023-02-02T10:06:46.232Z,2.00
2023-02-02T10:09:44.509Z,2.00
2023-02-02T10:12:23.357Z,2.47
2023-02-02T10:14:51.878Z,2.00
2023-02-02T10:17:21.727Z,2.37
2023-02-02T10:19:52.910Z,1.87
2023-02-02T10:22:24.666Z,2.73
2023-02-02T10:24:51.707Z,2.03
2023-02-02T10:27:34.715Z,2.30
2023-02-02T10:30:03.581Z,2.40
2023-02-02T10:32:49.236Z,2.43
2023-02-02T10:35:18.973Z,1.70
2023-02-02T10:37:54.311Z,1.90
2023-02-02T10:40:37.283Z,1.60
2023-02-02T10:43:57.596Z,2.10
2023-02-02T10:46:33.081Z,1.90
2023-02-02T10:49:32.262Z,1.73
2023-02-02T10:52:19.393Z,1.97
2023-02-02T10:55:04.211Z,2.40
2023-02-02T10:57:48.964Z,2.37
2023-02-02T11:00:44.118Z,2.27
2023-02-02T11:03:13.742Z,2.17
2023-02-02T11:05:59.691Z,2.20
2023-02-02T11:08:45.324Z,2.40
2023-02-02T11:11:20.939Z,1.87
2023-02-02T11:14:02.397Z,1.93
2023-02-02T11:16:42.000Z,2.17
2023-02-02T11:19:19.721Z,2.17
2023-02-02T11:21:49.096Z,2.70
2023-02-02T11:24:44.689Z,1.73
2023-02-02T11:27:19.455Z,2.17
2023-02-02T11:29:54.769Z,2.43
2023-02-02T11:32:33.137Z,2.20
2023-02-02T11:35:08.899Z,2.13
2023-02-02T11:37:37.971Z,1.97
2023-02-02T11:40:28.484Z,1.83
2023-02-02T11:42:57.555Z,1.60
2023-02-02T11:45:42.068Z,1.80
2023-02-02T11:48:16.418Z,1.70
2023-02-02T11:50:55.031Z,2.37
2023-02-02T11:53:26.723Z,2.20
2023-02-02T11:55:55.067Z,1.83
2023-02-02T11:58:30.190Z,2.27
2023-02-02T12:01:02.817Z,2.27
2023-02-02T12:03:39.880Z,1.70
2023-02-02T12:06:39.268Z,1.97
2023-02-02T12:09:19.711Z,2.23
2023-02-02T12:12:20.678Z,3.07
2023-02-02T12:15:16.278Z,2.03
2023-02-02T12:17:45.398Z,2.10
2023-02-02T12:20:43.079Z,2.07
2023-02-02T12:23:36.503Z,2.10
2023-02-02T12:26:27.610Z,2.30
2023-02-02T12:29:19.289Z,1.73
2023-02-02T12:32:04.739Z,2.13
2023-02-02T12:35:09.245Z,2.17
2023-02-02T12:37:40.940Z,2.53
2023-02-02T12:40:27.603Z,1.90
2023-02-02T12:43:20.704Z,2.20
2023-02-02T12:46:10.753Z,2.10
2023-02-02T12:49:04.070Z,1.90
2023-02-02T12:51:55.887Z,1.77
2023-02-02T12:54:57.426Z,2.43
2023-02-02T12:57:39.660Z,2.20
2023-02-02T13:00:32.516Z,1.70
2023-02-02T13:03:23.763Z,1.90
2023-02-02T13:06:09.686Z,1.93
2023-02-02T13:08:52.143Z,1.67
2023-02-02T13:11:36.354Z,2.13
2023-02-02T13:14:17.980Z,1.70
2023-02-02T13:16:49.163Z,2.27
2023-02-02T13:19:36.948Z,1.73
2023-02-02T13:22:06.335Z,1.93
2023-02-02T13:24:37.241Z,1.93
2023-02-02T13:27:07.634Z,2.17
2023-02-02T13:29:47.857Z,2.53
2023-02-02T13:32:34.781Z,1.63
2023-02-02T13:35:26.705Z,2.67
2023-02-02T13:38:18.363Z,2.43
2023-02-02T13:40:45.474Z,3.07
2023-02-02T13:43:34.720Z,2.27
2023-02-02T13:46:09.400Z,3.13
2023-02-02T13:48:44.767Z,2.40
2023-02-02T13:51:40.993Z,2.63
2023-02-02T13:54:28.581Z,2.40
2023-02-02T13:57:23.432Z,3.20
2023-02-02T13:59:59.483Z,2.33
2023-02-02T14:02:40.939Z,2.67
2023-02-02T14:05:22.971Z,2.63
2023-02-02T14:07:58.103Z,2.40
2023-02-02T14:10:31.516Z,2.40
2023-02-02T14:13:30.019Z,2.50
2023-02-02T14:15:59.504Z,3.10
2023-02-02T14:18:57.492Z,2.97
2023-02-02T14:21:36.087Z,2.80
2023-02-02T14:24:04.880Z,2.50
2023-02-02T14:26:49.717Z,3.57
2023-02-02T14:29:31.870Z,2.20
2023-02-02T14:32:29.393Z,2.50
2023-02-02T14:35:09.904Z,2.50
2023-02-02T14:37:50.208Z,2.83
2023-02-02T14:40:22.982Z,2.63
2023-02-02T14:43:46.606Z,2.60
2023-02-02T14:46:13.431Z,2.43
2023-02-02T14:48:44.617Z,2.80
2023-02-02T14:51:17.494Z,2.90
2023-02-02T14:53:49.231Z,2.73
2023-02-02T14:56:17.558Z,2.63
2023-02-02T14:58:51.860Z,2.40
2023-02-02T15:01:22.896Z,3.27
2023-02-02T15:04:00.593Z,2.83
2023-02-02T15:06:33.133Z,3.10
2023-02-02T15:09:27.897Z,2.70
2023-02-02T15:12:03.237Z,2.60
2023-02-02T15:14:39.429Z,2.90
2023-02-02T15:17:26.802Z,3.10
2023-02-02T15:20:20.832Z,3.00
2023-02-02T15:22:57.060Z,2.90
2023-02-02T15:25:31.019Z,3.23
2023-02-02T15:28:24.655Z,3.40
2023-02-02T15:30:56.697Z,2.90
2023-02-02T15:33:36.938Z,2.93
2023-02-02T15:36:34.679Z,3.57
2023-02-02T15:39:08.656Z,3.30
2023-02-02T15:41:41.792Z,3.87
2023-02-02T15:44:26.673Z,3.97
2023-02-02T15:46:55.538Z,3.17
2023-02-02T15:49:34.813Z,3.47
2023-02-02T15:52:15.898Z,3.50
2023-02-02T15:54:52.854Z,3.93
2023-02-02T15:57:37.035Z,4.20
2023-02-02T16:00:32.975Z,3.80
2023-02-02T16:03:02.168Z,3.80
2023-02-02T16:05:31.966Z,3.87
2023-02-02T16:08:07.525Z,3.87
2023-02-02T16:10:36.245Z,4.30
2023-02-02T16:13:03.503Z,3.60
2023-02-02T16:15:35.174Z,3.70
2023-02-02T16:18:13.412Z,3.37
2023-02-02T16:20:43.209Z,3.50
2023-02-02T16:23:16.634Z,3.53
2023-02-02T16:25:51.628Z,3.53
2023-02-02T16:28:20.363Z,3.63
2023-02-02T16:30:48.140Z,3.63
2023-02-02T16:33:44.281Z,3.37
2023-02-02T16:36:26.219Z,3.17
2023-02-02T16:38:54.844Z,3.00
2023-02-02T16:41:29.057Z,4.03
2023-02-02T16:43:56.219Z,3.37
2023-02-02T16:46:43.540Z,3.37
2023-02-02T16:49:22.452Z,3.23
2023-02-02T16:52:06.659Z,3.60
2023-02-02T16:54:34.037Z,3.43
2023-02-02T16:57:03.555Z,3.50
2023-02-02T16:59:37.930Z,2.77
2023-02-02T17:02:24.677Z,3.10
2023-02-02T17:05:02.848Z,3.40
2023-02-02T17:07:31.794Z,3.00
2023-02-02T17:10:16.635Z,3.10
2023-02-02T17:12:44.786Z,2.90
2023-02-02T17:15:17.736Z,2.87
2023-02-02T17:17:49.711Z,2.87
2023-02-02T17:20:18.321Z,3.17
2023-02-02T17:22:48.479Z,2.77
2023-02-02T17:25:43.797Z,2.80
2023-02-02T17:28:13.571Z,2.97
2023-02-02T17:30:45.648Z,2.93
2023-02-02T17:33:16.541Z,2.80
2023-02-02T17:35:55.005Z,2.90
2023-02-02T17:38:23.392Z,2.97
2023-02-02T17:40:50.748Z,3.43
2023-02-02T17:43:17.403Z,2.63
2023-02-02T17:45:47.524Z,2.90
2023-02-02T17:48:14.435Z,3.00
2023-02-02T17:50:45.049Z,2.50
2023-02-02T17:53:17.531Z,2.37
2023-02-02T17:55:45.856Z,2.93
2023-02-02T17:58:16.979Z,2.80
2023-02-02T18:00:49.143Z,2.87
2023-02-02T18:03:24.600Z,2.63
2023-02-02T18:05:51.569Z,2.43
2023-02-02T18:08:18.448Z,3.03
2023-02-02T18:10:45.602Z,3.00
2023-02-02T18:13:17.165Z,2.80
2023-02-02T18:16:02.947Z,3.17
2023-02-02T18:18:30.037Z,2.67
2023-02-02T18:20:56.944Z,3.33
2023-02-02T18:23:24.610Z,2.77
2023-02-02T18:25:52.899Z,2.90
2023-02-02T18:28:20.062Z,2.70
2023-02-02T18:30:49.988Z,2.60
2023-02-02T18:33:20.288Z,2.20
2023-02-02T18:35:47.907Z,3.07
2023-02-02T18:38:15.024Z,2.37
2023-02-02T18:40:41.969Z,2.33
2023-02-02T18:43:08.713Z,2.40
2023-02-02T18:45:36.555Z,3.00
2023-02-02T18:48:03.462Z,2.40
2023-02-02T18:50:33.679Z,2.90
2023-02-02T18:53:00.431Z,2.37
2023-02-02T18:55:28.056Z,2.70
2023-02-02T18:57:55.013Z,2.10
2023-02-02T19:00:22.252Z,2.47
2023-02-02T19:02:49.471Z,2.27
2023-02-02T19:05:34.850Z,2.30
2023-02-02T19:08:05.960Z,2.13
2023-02-02T19:10:33.023Z,1.97
2023-02-02T19:13:06.554Z,2.87
2023-02-02T19:15:38.224Z,1.93
2023-02-02T19:18:15.074Z,2.30
2023-02-02T19:20:46.028Z,2.40
2023-02-02T19:23:18.350Z,1.63
2023-02-02T19:25:51.116Z,2.00
2023-02-02T19:28:30.725Z,2.00
2023-02-02T19:31:00.353Z,2.00
2023-02-02T19:33:42.344Z,2.00
2023-02-02T19:36:30.874Z,1.53
2023-02-02T19:39:11.394Z,2.23
2023-02-02T19:41:40.612Z,2.47
2023-02-02T19:44:15.560Z,2.33
2023-02-02T19:46:54.617Z,2.27
2023-02-02T19:49:34.225Z,2.17
2023-02-02T19:52:04.104Z,2.20
2023-02-02T19:54:36.574Z,1.93
2023-02-02T19:57:38.405Z,2.50
2023-02-02T20:00:15.944Z,1.70
2023-02-02T20:02:52.270Z,2.60
2023-02-02T20:05:23.120Z,1.90
2023-02-02T20:07:59.549Z,2.33
2023-02-02T20:10:44.923Z,2.07
2023-02-02T20:13:42.737Z,2.27
2023-02-02T20:16:18.064Z,1.90
2023-02-02T20:18:48.622Z,2.00
2023-02-02T20:21:40.760Z,2.13
2023-02-02T20:24:27.414Z,1.77
2023-02-02T20:27:01.237Z,1.83
2023-02-02T20:29:38.829Z,1.80
2023-02-02T20:32:08.498Z,2.33
2023-02-02T20:34:40.542Z,2.53
2023-02-02T20:37:13.058Z,2.63
2023-02-02T20:39:47.767Z,2.10
2023-02-02T20:42:15.290Z,2.07
2023-02-02T20:44:45.314Z,2.67
2023-02-02T20:47:12.547Z,2.00
2023-02-02T20:49:39.848Z,1.93
2023-02-02T20:52:11.973Z,2.57
2023-02-02T20:54:39.555Z,1.80
2023-02-02T20:57:06.810Z,2.43
2023-02-02T20:59:33.516Z,1.90
2023-02-02T21:02:00.723Z,1.90
2023-02-02T21:04:27.731Z,1.97
2023-02-02T21:06:55.446Z,2.67
2023-02-02T21:09:22.137Z,2.03
2023-02-02T21:11:48.988Z,2.37
2023-02-02T21:14:15.769Z,2.20
2023-02-02T21:16:42.660Z,1.80
2023-02-02T21:19:09.549Z,2.17
2023-02-02T21:21:38.427Z,1.90
2023-02-02T21:24:06.038Z,1.70
2023-02-02T21:26:32.751Z,2.47
2023-02-02T21:28:59.493Z,1.80
2023-02-02T21:31:26.792Z,2.40
2023-02-02T21:33:53.899Z,2.10
2023-02-02T21:36:28.232Z,2.67
2023-02-02T21:39:17.762Z,2.60
2023-02-02T21:41:44.546Z,2.33
2023-02-02T21:44:23.409Z,2.73
2023-02-02T21:46:51.258Z,2.70
2023-02-02T21:49:24.840Z,2.47
2023-02-02T21:51:52.255Z,2.43
2023-02-02T21:54:22.093Z,2.87
2023-02-02T21:56:49.708Z,2.20
2023-02-02T21:59:27.150Z,2.20
2023-02-02T22:01:53.913Z,2.50
2023-02-02T22:04:24.299Z,2.23
2023-02-02T22:07:09.134Z,3.27
2023-02-02T22:09:43.164Z,2.37
2023-02-02T22:12:15.756Z,2.33
2023-02-02T22:14:45.201Z,2.20
2023-02-02T22:17:28.128Z,2.40
2023-02-02T22:20:07.558Z,2.30
2023-02-02T22:22:36.528Z,2.10
2023-02-02T22:25:20.924Z,2.70
2023-02-02T22:27:51.860Z,2.70
2023-02-02T22:30:29.405Z,2.93
2023-02-02T22:32:56.343Z,2.63
2023-02-02T22:35:25.967Z,1.83
2023-02-02T22:37:52.797Z,2.80
2023-02-02T22:40:22.611Z,2.67
2023-02-02T22:42:50.489Z,2.97
2023-02-02T22:45:19.378Z,2.57
2023-02-02T22:47:49.194Z,2.37
2023-02-02T22:50:23.915Z,2.57
2023-02-02T22:52:51.099Z,2.20
2023-02-02T22:55:18.379Z,2.47
2023-02-02T22:57:45.486Z,2.27
2023-02-02T23:00:21.266Z,2.27
2023-02-02T23:02:48.543Z,2.27
2023-02-02T23:05:16.903Z,2.50
2023-02-02T23:07:44.777Z,2.10
2023-02-02T23:10:13.776Z,1.93
2023-02-02T23:12:41.877Z,2.30
2023-02-02T23:15:09.863Z,2.27
2023-02-02T23:17:39.574Z,2.20
2023-02-02T23:20:08.876Z,2.40
2023-02-02T23:22:38.790Z,2.50
2023-02-02T23:25:05.949Z,2.50
2023-02-02T23:27:32.858Z,2.10
2023-02-02T23:29:59.737Z,2.43
2023-02-02T23:32:26.668Z,2.20
2023-02-02T23:34:53.404Z,2.30
2023-02-02T23:37:20.119Z,2.67
2023-02-02T23:39:46.846Z,2.50
2023-02-02T23:42:13.594Z,2.30
2023-02-02T23:44:40.574Z,2.63
2023-02-02T23:47:10.614Z,2.17
2023-02-02T23:49:38.126Z,2.60
2023-02-02T23:52:05.043Z,2.50
2023-02-02T23:54:32.268Z,2.03
2023-02-02T23:56:59.123Z,2.73
2023-02-02T23:59:25.946Z,2.43
